sensor_id;sensor_type;location;lat;lon;timestamp;temperature;humidity
61591;DHT22;71994;52.410;-1.966;2024-02-16T00:00:11;17.30;60.90
61591;DHT22;71994;52.410;-1.966;2024-02-16T00:03:23;17.30;61.00
61591;DHT22;71994;52.410;-1.966;2024-02-16T00:06:45;17.20;61.00
61591;DHT22;71994;52.410;-1.966;2024-02-16T00:10:09;17.30;61.10
61591;DHT22;71994;52.410;-1.966;2024-02-16T00:13:35;17.30;61.00
61591;DHT22;71994;52.410;-1.966;2024-02-16T00:16:58;17.20;61.10
61591;DHT22;71994;52.410;-1.966;2024-02-16T00:20:23;17.20;60.90
61591;DHT22;71994;52.410;-1.966;2024-02-16T00:23:46;17.20;60.90
61591;DHT22;71994;52.410;-1.966;2024-02-16T00:27:10;17.20;61.00
61591;DHT22;71994;52.410;-1.966;2024-02-16T00:30:33;17.20;61.10
61591;DHT22;71994;52.410;-1.966;2024-02-16T00:33:56;17.20;60.80
61591;DHT22;71994;52.410;-1.966;2024-02-16T00:37:21;17.20;61.00
61591;DHT22;71994;52.410;-1.966;2024-02-16T00:40:44;17.20;61.10
61591;DHT22;71994;52.410;-1.966;2024-02-16T00:44:07;17.20;60.90
61591;DHT22;71994;52.410;-1.966;2024-02-16T00:47:30;17.10;60.80
61591;DHT22;71994;52.410;-1.966;2024-02-16T00:50:53;17.20;60.90
61591;DHT22;71994;52.410;-1.966;2024-02-16T00:54:18;17.10;60.80
61591;DHT22;71994;52.410;-1.966;2024-02-16T00:57:41;17.10;60.90
61591;DHT22;71994;52.410;-1.966;2024-02-16T01:01:04;17.10;60.90
61591;DHT22;71994;52.410;-1.966;2024-02-16T01:04:30;17.10;60.90
61591;DHT22;71994;52.410;-1.966;2024-02-16T01:07:46;17.10;60.80
61591;DHT22;71994;52.410;-1.966;2024-02-16T01:10:59;17.10;60.80
61591;DHT22;71994;52.410;-1.966;2024-02-16T01:14:22;17.10;60.60
61591;DHT22;71994;52.410;-1.966;2024-02-16T01:17:45;17.10;60.60
61591;DHT22;71994;52.410;-1.966;2024-02-16T01:21:08;17.10;60.80
61591;DHT22;71994;52.410;-1.966;2024-02-16T01:24:33;17.10;60.90
61591;DHT22;71994;52.410;-1.966;2024-02-16T01:27:59;17.10;60.90
61591;DHT22;71994;52.410;-1.966;2024-02-16T01:31:22;17.10;60.80
61591;DHT22;71994;52.410;-1.966;2024-02-16T01:34:46;17.10;60.80
61591;DHT22;71994;52.410;-1.966;2024-02-16T01:38:09;17.10;60.70
61591;DHT22;71994;52.410;-1.966;2024-02-16T01:41:34;17.10;60.80
61591;DHT22;71994;52.410;-1.966;2024-02-16T01:45:04;17.10;60.90
61591;DHT22;71994;52.410;-1.966;2024-02-16T01:48:28;17.10;60.60
61591;DHT22;71994;52.410;-1.966;2024-02-16T01:51:51;17.00;60.90
61591;DHT22;71994;52.410;-1.966;2024-02-16T01:55:14;17.00;60.80
61591;DHT22;71994;52.410;-1.966;2024-02-16T01:58:41;17.10;60.60
61591;DHT22;71994;52.410;-1.966;2024-02-16T02:02:08;17.10;60.70
61591;DHT22;71994;52.410;-1.966;2024-02-16T02:05:32;17.00;60.60
61591;DHT22;71994;52.410;-1.966;2024-02-16T02:08:39;17.00;60.60
61591;DHT22;71994;52.410;-1.966;2024-02-16T02:11:45;17.10;60.80
61591;DHT22;71994;52.410;-1.966;2024-02-16T02:14:57;17.00;60.70
61591;DHT22;71994;52.410;-1.966;2024-02-16T02:18:05;17.00;60.60
61591;DHT22;71994;52.410;-1.966;2024-02-16T02:21:29;17.00;60.70
61591;DHT22;71994;52.410;-1.966;2024-02-16T02:24:39;17.00;60.70
61591;DHT22;71994;52.410;-1.966;2024-02-16T02:27:47;17.00;60.60
61591;DHT22;71994;52.410;-1.966;2024-02-16T02:30:54;17.00;60.60
61591;DHT22;71994;52.410;-1.966;2024-02-16T02:34:17;17.00;60.60
61591;DHT22;71994;52.410;-1.966;2024-02-16T02:37:25;17.00;60.50
61591;DHT22;71994;52.410;-1.966;2024-02-16T02:40:34;17.00;60.50
61591;DHT22;71994;52.410;-1.966;2024-02-16T02:43:45;17.00;60.50
61591;DHT22;71994;52.410;-1.966;2024-02-16T02:47:07;17.00;60.30
61591;DHT22;71994;52.410;-1.966;2024-02-16T02:50:22;17.00;60.30
61591;DHT22;71994;52.410;-1.966;2024-02-16T02:53:29;17.00;60.30
61591;DHT22;71994;52.410;-1.966;2024-02-16T02:56:38;16.90;60.20
61591;DHT22;71994;52.410;-1.966;2024-02-16T02:59:48;17.00;60.30
61591;DHT22;71994;52.410;-1.966;2024-02-16T03:02:54;17.00;60.20
61591;DHT22;71994;52.410;-1.966;2024-02-16T03:06:01;17.00;60.20
61591;DHT22;71994;52.410;-1.966;2024-02-16T03:09:23;16.90;60.20
61591;DHT22;71994;52.410;-1.966;2024-02-16T03:12:49;16.90;60.10
61591;DHT22;71994;52.410;-1.966;2024-02-16T03:15:56;17.00;60.10
61591;DHT22;71994;52.410;-1.966;2024-02-16T03:19:19;17.00;60.10
61591;DHT22;71994;52.410;-1.966;2024-02-16T03:22:25;16.90;60.10
61591;DHT22;71994;52.410;-1.966;2024-02-16T03:25:33;16.90;60.00
61591;DHT22;71994;52.410;-1.966;2024-02-16T03:28:43;16.90;59.90
61591;DHT22;71994;52.410;-1.966;2024-02-16T03:31:51;16.90;60.00
61591;DHT22;71994;52.410;-1.966;2024-02-16T03:34:57;16.90;59.90
61591;DHT22;71994;52.410;-1.966;2024-02-16T03:38:04;16.90;59.90
61591;DHT22;71994;52.410;-1.966;2024-02-16T03:41:13;16.90;59.90
61591;DHT22;71994;52.410;-1.966;2024-02-16T03:44:26;16.90;59.90
61591;DHT22;71994;52.410;-1.966;2024-02-16T03:47:33;16.90;59.90
61591;DHT22;71994;52.410;-1.966;2024-02-16T03:50:39;16.90;59.90
61591;DHT22;71994;52.410;-1.966;2024-02-16T03:53:46;16.90;59.90
61591;DHT22;71994;52.410;-1.966;2024-02-16T03:56:53;16.90;59.90
61591;DHT22;71994;52.410;-1.966;2024-02-16T04:00:05;16.90;59.70
61591;DHT22;71994;52.410;-1.966;2024-02-16T04:03:12;16.90;59.80
61591;DHT22;71994;52.410;-1.966;2024-02-16T04:06:18;16.90;59.80
61591;DHT22;71994;52.410;-1.966;2024-02-16T04:09:25;16.90;59.80
61591;DHT22;71994;52.410;-1.966;2024-02-16T04:12:31;16.80;59.80
61591;DHT22;71994;52.410;-1.966;2024-02-16T04:15:42;16.80;59.80
61591;DHT22;71994;52.410;-1.966;2024-02-16T04:18:48;16.80;59.90
61591;DHT22;71994;52.410;-1.966;2024-02-16T04:21:55;16.80;59.90
61591;DHT22;71994;52.410;-1.966;2024-02-16T04:25:01;16.80;59.80
61591;DHT22;71994;52.410;-1.966;2024-02-16T04:28:08;16.80;59.80
61591;DHT22;71994;52.410;-1.966;2024-02-16T04:31:22;16.80;59.80
61591;DHT22;71994;52.410;-1.966;2024-02-16T04:34:28;16.80;59.70
61591;DHT22;71994;52.410;-1.966;2024-02-16T04:37:36;16.80;59.70
61591;DHT22;71994;52.410;-1.966;2024-02-16T04:40:43;16.80;59.70
61591;DHT22;71994;52.410;-1.966;2024-02-16T04:43:49;16.80;59.60
61591;DHT22;71994;52.410;-1.966;2024-02-16T04:46:59;16.80;59.60
61591;DHT22;71994;52.410;-1.966;2024-02-16T04:50:07;16.80;59.50
61591;DHT22;71994;52.410;-1.966;2024-02-16T04:53:16;16.80;59.50
61591;DHT22;71994;52.410;-1.966;2024-02-16T04:56:23;16.80;59.50
61591;DHT22;71994;52.410;-1.966;2024-02-16T04:59:29;16.70;59.60
61591;DHT22;71994;52.410;-1.966;2024-02-16T05:02:40;16.70;59.60
61591;DHT22;71994;52.410;-1.966;2024-02-16T05:05:47;16.70;59.50
61591;DHT22;71994;52.410;-1.966;2024-02-16T05:08:53;16.70;59.50
61591;DHT22;71994;52.410;-1.966;2024-02-16T05:11:59;16.70;59.50
61591;DHT22;71994;52.410;-1.966;2024-02-16T05:15:08;16.70;59.50
61591;DHT22;71994;52.410;-1.966;2024-02-16T05:18:21;16.70;59.50
61591;DHT22;71994;52.410;-1.966;2024-02-16T05:21:28;16.70;59.50
61591;DHT22;71994;52.410;-1.966;2024-02-16T05:24:35;16.70;59.50
61591;DHT22;71994;52.410;-1.966;2024-02-16T05:27:41;16.70;59.40
61591;DHT22;71994;52.410;-1.966;2024-02-16T05:30:48;16.70;59.50
61591;DHT22;71994;52.410;-1.966;2024-02-16T05:33:57;16.70;59.40
61591;DHT22;71994;52.410;-1.966;2024-02-16T05:37:04;16.70;59.40
61591;DHT22;71994;52.410;-1.966;2024-02-16T05:40:11;16.70;59.30
61591;DHT22;71994;52.410;-1.966;2024-02-16T05:43:25;16.70;59.30
61591;DHT22;71994;52.410;-1.966;2024-02-16T05:46:32;16.60;59.40
61591;DHT22;71994;52.410;-1.966;2024-02-16T05:49:45;16.60;59.30
61591;DHT22;71994;52.410;-1.966;2024-02-16T05:52:52;16.60;59.30
61591;DHT22;71994;52.410;-1.966;2024-02-16T05:55:58;16.60;59.30
61591;DHT22;71994;52.410;-1.966;2024-02-16T05:59:05;16.60;59.30
61591;DHT22;71994;52.410;-1.966;2024-02-16T06:02:12;16.60;59.30
61591;DHT22;71994;52.410;-1.966;2024-02-16T06:05:21;16.60;59.30
61591;DHT22;71994;52.410;-1.966;2024-02-16T06:08:27;16.60;59.30
61591;DHT22;71994;52.410;-1.966;2024-02-16T06:11:36;16.60;59.30
61591;DHT22;71994;52.410;-1.966;2024-02-16T06:14:43;16.60;59.20
61591;DHT22;71994;52.410;-1.966;2024-02-16T06:17:51;16.60;59.20
61591;DHT22;71994;52.410;-1.966;2024-02-16T06:21:00;16.60;59.20
61591;DHT22;71994;52.410;-1.966;2024-02-16T06:24:07;16.60;59.20
61591;DHT22;71994;52.410;-1.966;2024-02-16T06:27:13;16.60;59.20
61591;DHT22;71994;52.410;-1.966;2024-02-16T06:30:20;16.60;59.20
61591;DHT22;71994;52.410;-1.966;2024-02-16T06:33:29;16.60;59.10
61591;DHT22;71994;52.410;-1.966;2024-02-16T06:36:38;16.60;59.20
61591;DHT22;71994;52.410;-1.966;2024-02-16T06:39:45;16.60;59.20
61591;DHT22;71994;52.410;-1.966;2024-02-16T06:42:51;16.50;59.20
61591;DHT22;71994;52.410;-1.966;2024-02-16T06:45:57;16.60;59.20
61591;DHT22;71994;52.410;-1.966;2024-02-16T06:49:04;16.50;59.20
61591;DHT22;71994;52.410;-1.966;2024-02-16T06:52:13;16.50;59.20
61591;DHT22;71994;52.410;-1.966;2024-02-16T06:55:20;16.50;59.20
61591;DHT22;71994;52.410;-1.966;2024-02-16T06:58:26;16.50;59.20
61591;DHT22;71994;52.410;-1.966;2024-02-16T07:01:33;16.50;59.20
61591;DHT22;71994;52.410;-1.966;2024-02-16T07:04:41;16.50;59.10
61591;DHT22;71994;52.410;-1.966;2024-02-16T07:07:51;16.50;59.10
61591;DHT22;71994;52.410;-1.966;2024-02-16T07:10:57;16.50;59.20
61591;DHT22;71994;52.410;-1.966;2024-02-16T07:14:09;16.50;59.20
61591;DHT22;71994;52.410;-1.966;2024-02-16T07:17:16;16.50;59.30
61591;DHT22;71994;52.410;-1.966;2024-02-16T07:20:25;16.50;59.50
61591;DHT22;71994;52.410;-1.966;2024-02-16T07:23:39;16.60;59.50
61591;DHT22;71994;52.410;-1.966;2024-02-16T07:26:45;16.70;59.30
61591;DHT22;71994;52.410;-1.966;2024-02-16T07:29:52;16.90;59.10
61591;DHT22;71994;52.410;-1.966;2024-02-16T07:32:58;17.00;58.80
61591;DHT22;71994;52.410;-1.966;2024-02-16T07:36:05;17.20;58.50
61591;DHT22;71994;52.410;-1.966;2024-02-16T07:39:15;17.40;58.10
61591;DHT22;71994;52.410;-1.966;2024-02-16T07:42:21;17.60;57.70
61591;DHT22;71994;52.410;-1.966;2024-02-16T07:45:31;17.70;57.50
61591;DHT22;71994;52.410;-1.966;2024-02-16T07:48:37;17.80;57.20
61591;DHT22;71994;52.410;-1.966;2024-02-16T07:51:44;17.90;57.00
61591;DHT22;71994;52.410;-1.966;2024-02-16T07:54:53;18.00;56.90
61591;DHT22;71994;52.410;-1.966;2024-02-16T07:58:00;18.00;56.70
61591;DHT22;71994;52.410;-1.966;2024-02-16T08:01:15;18.10;56.70
61591;DHT22;71994;52.410;-1.966;2024-02-16T08:04:21;18.10;56.60
61591;DHT22;71994;52.410;-1.966;2024-02-16T08:07:28;18.10;56.60
61591;DHT22;71994;52.410;-1.966;2024-02-16T08:10:40;18.10;56.60
61591;DHT22;71994;52.410;-1.966;2024-02-16T08:13:46;18.10;56.60
61591;DHT22;71994;52.410;-1.966;2024-02-16T08:16:53;18.00;56.60
61591;DHT22;71994;52.410;-1.966;2024-02-16T08:19:59;18.00;56.60
61591;DHT22;71994;52.410;-1.966;2024-02-16T08:23:06;17.90;56.70
61591;DHT22;71994;52.410;-1.966;2024-02-16T08:26:16;17.90;57.20
61591;DHT22;71994;52.410;-1.966;2024-02-16T08:29:26;17.90;57.00
61591;DHT22;71994;52.410;-1.966;2024-02-16T08:32:36;17.90;57.40
61591;DHT22;71994;52.410;-1.966;2024-02-16T08:35:42;17.90;57.40
61591;DHT22;71994;52.410;-1.966;2024-02-16T08:38:48;17.90;57.50
61591;DHT22;71994;52.410;-1.966;2024-02-16T08:42:13;17.80;57.60
61591;DHT22;71994;52.410;-1.966;2024-02-16T08:45:20;17.80;57.60
61591;DHT22;71994;52.410;-1.966;2024-02-16T08:48:27;17.80;57.80
61591;DHT22;71994;52.410;-1.966;2024-02-16T08:51:33;17.80;58.00
61591;DHT22;71994;52.410;-1.966;2024-02-16T08:54:39;17.80;58.10
61591;DHT22;71994;52.410;-1.966;2024-02-16T08:57:50;17.80;58.20
61591;DHT22;71994;52.410;-1.966;2024-02-16T09:00:58;17.80;58.40
61591;DHT22;71994;52.410;-1.966;2024-02-16T09:04:04;17.70;58.40
61591;DHT22;71994;52.410;-1.966;2024-02-16T09:07:11;17.70;58.70
61591;DHT22;71994;52.410;-1.966;2024-02-16T09:10:17;17.70;58.70
61591;DHT22;71994;52.410;-1.966;2024-02-16T09:13:28;17.70;58.80
61591;DHT22;71994;52.410;-1.966;2024-02-16T09:16:35;17.70;58.80
61591;DHT22;71994;52.410;-1.966;2024-02-16T09:19:41;17.60;58.80
61591;DHT22;71994;52.410;-1.966;2024-02-16T09:22:48;17.60;58.60
61591;DHT22;71994;52.410;-1.966;2024-02-16T09:25:55;17.60;58.40
61591;DHT22;71994;52.410;-1.966;2024-02-16T09:29:06;17.60;58.80
61591;DHT22;71994;52.410;-1.966;2024-02-16T09:32:13;17.50;58.70
61591;DHT22;71994;52.410;-1.966;2024-02-16T09:35:19;17.50;58.80
61591;DHT22;71994;52.410;-1.966;2024-02-16T09:38:26;17.50;58.80
61591;DHT22;71994;52.410;-1.966;2024-02-16T09:41:35;17.60;59.10
61591;DHT22;71994;52.410;-1.966;2024-02-16T09:44:45;17.50;59.00
61591;DHT22;71994;52.410;-1.966;2024-02-16T09:47:56;17.50;58.90
61591;DHT22;71994;52.410;-1.966;2024-02-16T09:51:05;17.50;59.00
61591;DHT22;71994;52.410;-1.966;2024-02-16T09:54:17;17.50;59.10
61591;DHT22;71994;52.410;-1.966;2024-02-16T09:57:24;17.50;59.30
61591;DHT22;71994;52.410;-1.966;2024-02-16T10:00:41;17.40;59.30
61591;DHT22;71994;52.410;-1.966;2024-02-16T10:03:48;17.50;59.50
61591;DHT22;71994;52.410;-1.966;2024-02-16T10:10:21;17.40;59.60
61591;DHT22;71994;52.410;-1.966;2024-02-16T10:13:31;17.40;59.70
61591;DHT22;71994;52.410;-1.966;2024-02-16T10:16:58;17.40;59.70
61591;DHT22;71994;52.410;-1.966;2024-02-16T10:20:18;17.40;59.60
61591;DHT22;71994;52.410;-1.966;2024-02-16T10:23:29;17.40;59.40
61591;DHT22;71994;52.410;-1.966;2024-02-16T10:26:36;17.40;59.30
61591;DHT22;71994;52.410;-1.966;2024-02-16T10:29:47;17.40;59.30
61591;DHT22;71994;52.410;-1.966;2024-02-16T10:33:08;17.30;59.40
61591;DHT22;71994;52.410;-1.966;2024-02-16T10:36:44;17.30;59.50
61591;DHT22;71994;52.410;-1.966;2024-02-16T10:39:52;17.30;59.50
61591;DHT22;71994;52.410;-1.966;2024-02-16T10:43:04;17.30;59.50
61591;DHT22;71994;52.410;-1.966;2024-02-16T10:46:11;17.40;59.60
61591;DHT22;71994;52.410;-1.966;2024-02-16T10:49:20;17.30;59.40
61591;DHT22;71994;52.410;-1.966;2024-02-16T10:52:35;17.40;59.60
61591;DHT22;71994;52.410;-1.966;2024-02-16T10:55:47;17.30;59.50
61591;DHT22;71994;52.410;-1.966;2024-02-16T10:59:00;17.30;59.50
61591;DHT22;71994;52.410;-1.966;2024-02-16T11:02:07;17.30;59.50
61591;DHT22;71994;52.410;-1.966;2024-02-16T11:05:18;17.30;59.40
61591;DHT22;71994;52.410;-1.966;2024-02-16T11:08:27;17.30;59.40
61591;DHT22;71994;52.410;-1.966;2024-02-16T11:11:39;17.30;59.40
61591;DHT22;71994;52.410;-1.966;2024-02-16T11:14:48;17.30;59.30
61591;DHT22;71994;52.410;-1.966;2024-02-16T11:18:00;17.30;59.30
61591;DHT22;71994;52.410;-1.966;2024-02-16T11:21:16;17.30;59.30
61591;DHT22;71994;52.410;-1.966;2024-02-16T11:24:30;17.30;59.30
61591;DHT22;71994;52.410;-1.966;2024-02-16T11:27:37;17.30;59.30
61591;DHT22;71994;52.410;-1.966;2024-02-16T11:30:52;17.20;59.30
61591;DHT22;71994;52.410;-1.966;2024-02-16T11:33:59;17.20;59.30
61591;DHT22;71994;52.410;-1.966;2024-02-16T11:37:08;17.20;59.30
61591;DHT22;71994;52.410;-1.966;2024-02-16T11:40:19;17.20;59.40
61591;DHT22;71994;52.410;-1.966;2024-02-16T11:43:26;17.20;59.30
61591;DHT22;71994;52.410;-1.966;2024-02-16T11:46:33;17.20;59.30
61591;DHT22;71994;52.410;-1.966;2024-02-16T11:49:40;17.20;59.40
61591;DHT22;71994;52.410;-1.966;2024-02-16T11:52:50;17.20;59.40
61591;DHT22;71994;52.410;-1.966;2024-02-16T11:55:57;17.30;59.40
61591;DHT22;71994;52.410;-1.966;2024-02-16T11:59:09;17.20;59.30
61591;DHT22;71994;52.410;-1.966;2024-02-16T12:02:40;17.20;59.30
61591;DHT22;71994;52.410;-1.966;2024-02-16T12:05:55;17.20;59.30
61591;DHT22;71994;52.410;-1.966;2024-02-16T12:09:04;17.10;59.30
61591;DHT22;71994;52.410;-1.966;2024-02-16T12:12:12;17.20;59.50
61591;DHT22;71994;52.410;-1.966;2024-02-16T12:15:22;17.10;59.50
61591;DHT22;71994;52.410;-1.966;2024-02-16T12:18:28;17.20;59.60
61591;DHT22;71994;52.410;-1.966;2024-02-16T12:21:44;17.10;59.60
61591;DHT22;71994;52.410;-1.966;2024-02-16T12:25:15;17.10;59.70
61591;DHT22;71994;52.410;-1.966;2024-02-16T12:28:23;17.10;59.70
61591;DHT22;71994;52.410;-1.966;2024-02-16T12:31:31;17.20;59.70
61591;DHT22;71994;52.410;-1.966;2024-02-16T12:34:40;17.20;59.80
61591;DHT22;71994;52.410;-1.966;2024-02-16T12:37:47;17.30;60.10
61591;DHT22;71994;52.410;-1.966;2024-02-16T12:40:56;17.30;62.10
61591;DHT22;71994;52.410;-1.966;2024-02-16T12:44:03;17.30;61.70
61591;DHT22;71994;52.410;-1.966;2024-02-16T12:47:09;17.30;61.10
61591;DHT22;71994;52.410;-1.966;2024-02-16T12:50:15;17.40;61.10
61591;DHT22;71994;52.410;-1.966;2024-02-16T12:53:22;17.40;61.30
61591;DHT22;71994;52.410;-1.966;2024-02-16T12:56:32;17.40;62.30
61591;DHT22;71994;52.410;-1.966;2024-02-16T12:59:38;17.50;61.70
61591;DHT22;71994;52.410;-1.966;2024-02-16T13:02:44;17.40;61.30
61591;DHT22;71994;52.410;-1.966;2024-02-16T13:05:52;17.40;61.20
61591;DHT22;71994;52.410;-1.966;2024-02-16T13:08:58;17.40;61.30
61591;DHT22;71994;52.410;-1.966;2024-02-16T13:12:08;17.50;61.20
61591;DHT22;71994;52.410;-1.966;2024-02-16T13:15:15;17.50;61.30
61591;DHT22;71994;52.410;-1.966;2024-02-16T13:18:21;17.50;61.20
61591;DHT22;71994;52.410;-1.966;2024-02-16T13:21:28;17.50;61.20
61591;DHT22;71994;52.410;-1.966;2024-02-16T13:24:35;17.50;61.30
61591;DHT22;71994;52.410;-1.966;2024-02-16T13:27:44;17.50;61.50
61591;DHT22;71994;52.410;-1.966;2024-02-16T13:30:53;17.50;61.20
61591;DHT22;71994;52.410;-1.966;2024-02-16T13:33:59;17.40;61.30
61591;DHT22;71994;52.410;-1.966;2024-02-16T13:37:06;17.40;61.40
61591;DHT22;71994;52.410;-1.966;2024-02-16T13:40:13;17.30;61.30
61591;DHT22;71994;52.410;-1.966;2024-02-16T13:43:23;17.30;61.20
61591;DHT22;71994;52.410;-1.966;2024-02-16T13:46:30;17.30;61.10
61591;DHT22;71994;52.410;-1.966;2024-02-16T13:49:38;17.30;61.20
61591;DHT22;71994;52.410;-1.966;2024-02-16T13:52:44;17.30;61.00
61591;DHT22;71994;52.410;-1.966;2024-02-16T13:55:56;17.30;60.80
61591;DHT22;71994;52.410;-1.966;2024-02-16T13:59:07;17.30;60.80
61591;DHT22;71994;52.410;-1.966;2024-02-16T14:02:13;17.30;60.70
61591;DHT22;71994;52.410;-1.966;2024-02-16T14:05:23;17.30;60.80
61591;DHT22;71994;52.410;-1.966;2024-02-16T14:08:36;17.30;60.80
61591;DHT22;71994;52.410;-1.966;2024-02-16T14:11:46;17.30;60.70
61591;DHT22;71994;52.410;-1.966;2024-02-16T14:14:58;17.30;60.80
61591;DHT22;71994;52.410;-1.966;2024-02-16T14:18:10;17.30;60.80
61591;DHT22;71994;52.410;-1.966;2024-02-16T14:21:17;17.20;60.70
61591;DHT22;71994;52.410;-1.966;2024-02-16T14:24:29;17.20;60.80
61591;DHT22;71994;52.410;-1.966;2024-02-16T14:27:36;17.20;60.70
61591;DHT22;71994;52.410;-1.966;2024-02-16T14:30:47;17.20;60.70
61591;DHT22;71994;52.410;-1.966;2024-02-16T14:33:53;17.20;60.80
61591;DHT22;71994;52.410;-1.966;2024-02-16T14:37:00;17.20;60.70
61591;DHT22;71994;52.410;-1.966;2024-02-16T14:40:07;17.10;60.70
61591;DHT22;71994;52.410;-1.966;2024-02-16T14:43:15;17.10;60.70
61591;DHT22;71994;52.410;-1.966;2024-02-16T14:46:28;17.10;60.70
61591;DHT22;71994;52.410;-1.966;2024-02-16T14:49:34;17.20;60.70
61591;DHT22;71994;52.410;-1.966;2024-02-16T14:52:41;17.10;60.70
61591;DHT22;71994;52.410;-1.966;2024-02-16T14:55:49;17.10;60.70
61591;DHT22;71994;52.410;-1.966;2024-02-16T14:58:55;17.10;60.50
61591;DHT22;71994;52.410;-1.966;2024-02-16T15:02:05;17.20;60.50
61591;DHT22;71994;52.410;-1.966;2024-02-16T15:05:12;17.10;60.40
61591;DHT22;71994;52.410;-1.966;2024-02-16T15:08:18;17.10;60.40
61591;DHT22;71994;52.410;-1.966;2024-02-16T15:11:24;17.10;60.50
61591;DHT22;71994;52.410;-1.966;2024-02-16T15:14:31;17.20;60.30
61591;DHT22;71994;52.410;-1.966;2024-02-16T15:17:40;17.20;60.10
61591;DHT22;71994;52.410;-1.966;2024-02-16T15:20:47;17.10;60.20
61591;DHT22;71994;52.410;-1.966;2024-02-16T15:23:53;17.10;60.20
61591;DHT22;71994;52.410;-1.966;2024-02-16T15:27:00;17.10;60.20
61591;DHT22;71994;52.410;-1.966;2024-02-16T15:30:10;17.10;60.10
61591;DHT22;71994;52.410;-1.966;2024-02-16T15:33:19;17.10;60.20
61591;DHT22;71994;52.410;-1.966;2024-02-16T15:36:25;17.10;60.10
61591;DHT22;71994;52.410;-1.966;2024-02-16T15:39:32;17.10;60.30
61591;DHT22;71994;52.410;-1.966;2024-02-16T15:42:41;17.10;60.10
61591;DHT22;71994;52.410;-1.966;2024-02-16T15:45:49;17.10;59.90
61591;DHT22;71994;52.410;-1.966;2024-02-16T15:48:58;17.10;60.10
61591;DHT22;71994;52.410;-1.966;2024-02-16T15:52:07;17.00;60.00
61591;DHT22;71994;52.410;-1.966;2024-02-16T15:55:16;17.10;60.00
61591;DHT22;71994;52.410;-1.966;2024-02-16T15:58:23;17.10;60.00
61591;DHT22;71994;52.410;-1.966;2024-02-16T16:01:29;17.00;60.00
61591;DHT22;71994;52.410;-1.966;2024-02-16T16:05:01;17.10;60.00
61591;DHT22;71994;52.410;-1.966;2024-02-16T16:08:10;17.00;59.90
61591;DHT22;71994;52.410;-1.966;2024-02-16T16:11:16;17.00;59.90
61591;DHT22;71994;52.410;-1.966;2024-02-16T16:14:23;17.00;59.80
61591;DHT22;71994;52.410;-1.966;2024-02-16T16:17:29;17.00;59.80
61591;DHT22;71994;52.410;-1.966;2024-02-16T16:20:39;17.00;59.80
61591;DHT22;71994;52.410;-1.966;2024-02-16T16:23:45;16.90;59.80
61591;DHT22;71994;52.410;-1.966;2024-02-16T16:26:51;16.90;59.80
61591;DHT22;71994;52.410;-1.966;2024-02-16T16:29:58;16.90;59.80
61591;DHT22;71994;52.410;-1.966;2024-02-16T16:33:05;16.90;59.70
61591;DHT22;71994;52.410;-1.966;2024-02-16T16:36:14;17.00;59.80
61591;DHT22;71994;52.410;-1.966;2024-02-16T16:39:20;16.90;59.70
61591;DHT22;71994;52.410;-1.966;2024-02-16T16:42:27;16.90;59.80
61591;DHT22;71994;52.410;-1.966;2024-02-16T16:45:35;16.80;59.70
61591;DHT22;71994;52.410;-1.966;2024-02-16T16:48:41;16.80;59.70
61591;DHT22;71994;52.410;-1.966;2024-02-16T16:51:50;16.80;59.70
61591;DHT22;71994;52.410;-1.966;2024-02-16T16:54:57;16.80;59.70
61591;DHT22;71994;52.410;-1.966;2024-02-16T16:58:03;16.80;59.70
61591;DHT22;71994;52.410;-1.966;2024-02-16T17:01:10;16.80;59.60
61591;DHT22;71994;52.410;-1.966;2024-02-16T17:04:27;16.80;59.50
61591;DHT22;71994;52.410;-1.966;2024-02-16T17:07:59;16.80;59.50
61591;DHT22;71994;52.410;-1.966;2024-02-16T17:11:08;16.80;59.50
61591;DHT22;71994;52.410;-1.966;2024-02-16T17:14:15;16.80;59.50
61591;DHT22;71994;52.410;-1.966;2024-02-16T17:17:22;16.80;59.50
61591;DHT22;71994;52.410;-1.966;2024-02-16T17:20:29;16.80;59.40
61591;DHT22;71994;52.410;-1.966;2024-02-16T17:23:40;16.80;59.40
61591;DHT22;71994;52.410;-1.966;2024-02-16T17:26:47;16.80;59.40
61591;DHT22;71994;52.410;-1.966;2024-02-16T17:29:53;16.80;59.40
61591;DHT22;71994;52.410;-1.966;2024-02-16T17:32:59;16.80;59.30
61591;DHT22;71994;52.410;-1.966;2024-02-16T17:36:06;16.80;59.30
61591;DHT22;71994;52.410;-1.966;2024-02-16T17:39:16;16.80;59.40
61591;DHT22;71994;52.410;-1.966;2024-02-16T17:42:25;16.80;59.50
61591;DHT22;71994;52.410;-1.966;2024-02-16T17:45:31;16.90;59.40
61591;DHT22;71994;52.410;-1.966;2024-02-16T17:48:39;17.00;59.30
61591;DHT22;71994;52.410;-1.966;2024-02-16T17:51:45;17.10;59.10
61591;DHT22;71994;52.410;-1.966;2024-02-16T17:54:55;17.10;59.00
61591;DHT22;71994;52.410;-1.966;2024-02-16T17:58:03;17.20;58.90
61591;DHT22;71994;52.410;-1.966;2024-02-16T18:01:11;17.30;58.80
61591;DHT22;71994;52.410;-1.966;2024-02-16T18:04:17;17.30;58.60
61591;DHT22;71994;52.410;-1.966;2024-02-16T18:07:27;17.40;58.50
61591;DHT22;71994;52.410;-1.966;2024-02-16T18:10:36;17.40;58.50
61591;DHT22;71994;52.410;-1.966;2024-02-16T18:13:42;17.40;58.40
61591;DHT22;71994;52.410;-1.966;2024-02-16T18:16:54;17.40;58.30
61591;DHT22;71994;52.410;-1.966;2024-02-16T18:20:03;17.40;58.40
61591;DHT22;71994;52.410;-1.966;2024-02-16T18:23:09;17.40;58.30
61591;DHT22;71994;52.410;-1.966;2024-02-16T18:26:18;17.40;58.30
61591;DHT22;71994;52.410;-1.966;2024-02-16T18:29:25;17.40;58.40
61591;DHT22;71994;52.410;-1.966;2024-02-16T18:32:31;17.30;58.40
61591;DHT22;71994;52.410;-1.966;2024-02-16T18:35:38;17.30;58.40
61591;DHT22;71994;52.410;-1.966;2024-02-16T18:38:44;17.30;58.50
61591;DHT22;71994;52.410;-1.966;2024-02-16T18:41:53;17.30;58.50
61591;DHT22;71994;52.410;-1.966;2024-02-16T18:45:00;17.30;58.50
61591;DHT22;71994;52.410;-1.966;2024-02-16T18:48:11;17.20;58.50
61591;DHT22;71994;52.410;-1.966;2024-02-16T18:51:18;17.20;58.60
61591;DHT22;71994;52.410;-1.966;2024-02-16T18:54:24;17.20;58.60
61591;DHT22;71994;52.410;-1.966;2024-02-16T18:57:33;17.20;58.60
61591;DHT22;71994;52.410;-1.966;2024-02-16T19:00:39;17.10;58.60
61591;DHT22;71994;52.410;-1.966;2024-02-16T19:03:46;17.10;58.60
61591;DHT22;71994;52.410;-1.966;2024-02-16T19:06:52;17.10;58.60
61591;DHT22;71994;52.410;-1.966;2024-02-16T19:09:58;17.10;58.60
61591;DHT22;71994;52.410;-1.966;2024-02-16T19:13:09;17.10;58.50
61591;DHT22;71994;52.410;-1.966;2024-02-16T19:16:18;17.10;58.50
61591;DHT22;71994;52.410;-1.966;2024-02-16T19:19:25;17.10;58.40
61591;DHT22;71994;52.410;-1.966;2024-02-16T19:22:33;17.10;58.30
61591;DHT22;71994;52.410;-1.966;2024-02-16T19:25:40;17.10;58.20
61591;DHT22;71994;52.410;-1.966;2024-02-16T19:28:51;17.10;58.10
61591;DHT22;71994;52.410;-1.966;2024-02-16T19:31:57;17.20;58.10
61591;DHT22;71994;52.410;-1.966;2024-02-16T19:35:05;17.10;58.10
61591;DHT22;71994;52.410;-1.966;2024-02-16T19:38:14;17.10;58.10
61591;DHT22;71994;52.410;-1.966;2024-02-16T19:41:20;17.10;58.10
61591;DHT22;71994;52.410;-1.966;2024-02-16T19:44:37;17.10;58.00